createdAt,value
2023-03-18T00:01:04.275Z,97.66
2023-03-18T00:03:32.689Z,97.32
2023-03-18T00:06:24.170Z,97.28
2023-03-18T00:08:51.006Z,96.79
2023-03-18T00:11:20.242Z,97.58
2023-03-18T00:13:48.113Z,97.99
2023-03-18T00:16:16.689Z,98.53
2023-03-18T00:18:43.963Z,98.27
2023-03-18T00:21:11.142Z,98.43
2023-03-18T00:23:38.837Z,98.66
2023-03-18T00:26:06.844Z,98.69
2023-03-18T00:28:33.640Z,99.05
2023-03-18T00:31:10.334Z,99.14
2023-03-18T00:33:40.182Z,98.51
2023-03-18T00:36:10.424Z,97.31
2023-03-18T00:38:37.630Z,98.81
2023-03-18T00:41:11.593Z,98.13
2023-03-18T00:43:49.467Z,99.32
2023-03-18T00:46:19.528Z,97.73
2023-03-18T00:48:47.495Z,98.51
2023-03-18T00:51:17.293Z,98.62
2023-03-18T00:53:47.724Z,99.05
2023-03-18T00:56:16.504Z,98.75
2023-03-18T00:58:43.336Z,99.53
2023-03-18T01:01:10.402Z,98.80
2023-03-18T01:03:37.189Z,98.36
2023-03-18T01:06:04.386Z,97.60
2023-03-18T01:08:32.213Z,97.87
2023-03-18T01:10:59.564Z,97.98
2023-03-18T01:13:26.358Z,97.31
2023-03-18T01:15:53.369Z,97.30
2023-03-18T01:18:21.106Z,96.60
2023-03-18T01:20:48.860Z,95.58
2023-03-18T01:23:15.828Z,96.14
2023-03-18T01:25:44.795Z,96.00
2023-03-18T01:28:13.501Z,96.89
2023-03-18T01:30:41.084Z,96.97
2023-03-18T01:33:08.077Z,96.48
2023-03-18T01:35:36.497Z,96.97
2023-03-18T01:38:05.719Z,98.17
2023-03-18T01:40:36.329Z,99.54
2023-03-18T01:43:24.997Z,99.79
2023-03-18T01:45:55.464Z,99.40
2023-03-18T01:48:26.218Z,99.95
2023-03-18T01:50:59.792Z,100.00
2023-03-18T01:53:32.763Z,99.68
2023-03-18T01:56:01.408Z,98.47
2023-03-18T01:58:36.836Z,97.80
2023-03-18T02:01:14.830Z,98.23
2023-03-18T02:03:42.995Z,97.38
2023-03-18T02:06:12.489Z,96.96
2023-03-18T02:08:41.050Z,96.83
2023-03-18T02:11:09.744Z,97.37
2023-03-18T02:13:40.785Z,96.62
2023-03-18T02:16:18.582Z,95.91
2023-03-18T02:18:56.646Z,96.08
2023-03-18T02:21:42.647Z,97.10
2023-03-18T02:24:51.694Z,96.84
2023-03-18T02:27:31.888Z,96.97
2023-03-18T02:30:05.103Z,96.33
2023-03-18T02:32:33.598Z,95.91
2023-03-18T02:35:04.634Z,97.26
2023-03-18T02:37:31.460Z,97.79
2023-03-18T02:40:31.206Z,97.31
2023-03-18T02:43:15.757Z,96.71
2023-03-18T02:46:38.448Z,96.53
2023-03-18T02:49:07.894Z,99.35
2023-03-18T02:51:37.241Z,100.00
2023-03-18T02:54:10.327Z,100.00
2023-03-18T02:56:42.484Z,99.24
2023-03-18T02:59:11.024Z,98.28
2023-03-18T03:01:39.380Z,98.71
2023-03-18T03:04:07.699Z,99.59
2023-03-18T03:06:36.098Z,99.90
2023-03-18T03:09:05.631Z,100.00
2023-03-18T03:11:33.190Z,100.00
2023-03-18T03:14:00.099Z,100.00
2023-03-18T03:16:26.884Z,100.00
2023-03-18T03:18:53.862Z,100.00
2023-03-18T03:21:20.646Z,99.71
2023-03-18T03:23:48.348Z,98.31
2023-03-18T03:26:16.857Z,97.76
2023-03-18T03:28:44.227Z,99.26
2023-03-18T03:31:11.256Z,97.66
2023-03-18T03:33:43.807Z,97.80
2023-03-18T03:36:14.612Z,97.08
2023-03-18T03:38:41.793Z,99.60
2023-03-18T03:41:11.684Z,98.87
2023-03-18T03:43:41.283Z,97.55
2023-03-18T03:46:09.536Z,97.66
2023-03-18T03:48:36.435Z,97.60
2023-03-18T03:51:03.519Z,98.19
2023-03-18T03:53:30.287Z,98.71
2023-03-18T03:55:59.138Z,99.60
2023-03-18T03:58:26.876Z,100.00
2023-03-18T04:00:53.644Z,100.00
2023-03-18T04:03:20.405Z,99.99
2023-03-18T04:05:47.884Z,99.82
2023-03-18T04:08:14.665Z,98.62
2023-03-18T04:10:41.554Z,98.87
2023-03-18T04:13:08.954Z,99.66
2023-03-18T04:15:36.007Z,99.21
2023-03-18T04:18:07.223Z,98.52
2023-03-18T04:20:38.844Z,98.42
2023-03-18T04:23:07.479Z,98.04
2023-03-18T04:25:35.410Z,97.56
2023-03-18T04:28:03.286Z,97.58
2023-03-18T04:30:30.900Z,98.08
2023-03-18T04:32:59.800Z,98.63
2023-03-18T04:35:28.438Z,98.83
2023-03-18T04:37:55.421Z,98.46
2023-03-18T04:40:22.246Z,99.03
2023-03-18T04:42:49.040Z,100.00
2023-03-18T04:45:17.700Z,100.00
2023-03-18T04:47:45.591Z,100.00
2023-03-18T04:50:14.350Z,100.00
2023-03-18T04:52:42.869Z,100.00
2023-03-18T04:55:10.866Z,100.00
2023-03-18T04:57:38.629Z,98.66
2023-03-18T05:00:11.786Z,99.75
2023-03-18T05:02:39.991Z,99.78
2023-03-18T05:05:07.957Z,99.58
2023-03-18T05:07:34.778Z,99.71
2023-03-18T05:10:01.549Z,98.69
2023-03-18T05:12:28.334Z,98.17
2023-03-18T05:14:55.190Z,97.53
2023-03-18T05:17:21.934Z,96.43
2023-03-18T05:19:49.260Z,97.60
2023-03-18T05:22:19.739Z,98.29
2023-03-18T05:24:46.990Z,97.52
2023-03-18T05:27:17.323Z,97.88
2023-03-18T05:29:44.725Z,97.91
2023-03-18T05:32:12.787Z,97.88
2023-03-18T05:34:41.447Z,97.11
2023-03-18T05:37:11.173Z,96.61
2023-03-18T05:39:38.526Z,97.86
2023-03-18T05:42:06.516Z,98.60
2023-03-18T05:44:34.138Z,98.14
2023-03-18T05:47:01.784Z,99.77
2023-03-18T05:49:29.107Z,99.52
2023-03-18T05:51:55.923Z,98.71
2023-03-18T05:54:23.564Z,97.89
2023-03-18T05:56:52.512Z,97.77
2023-03-18T05:59:22.210Z,97.88
2023-03-18T06:01:49.313Z,97.75
2023-03-18T06:04:20.064Z,98.11
2023-03-18T06:06:48.463Z,99.00
2023-03-18T06:09:16.682Z,99.51
2023-03-18T06:11:44.686Z,98.89
2023-03-18T06:14:12.823Z,98.39
2023-03-18T06:16:40.379Z,99.15
2023-03-18T06:19:08.202Z,100.00
2023-03-18T06:21:35.002Z,100.00
2023-03-18T06:24:02.387Z,100.00
2023-03-18T06:26:29.486Z,100.00
2023-03-18T06:28:58.514Z,100.00
2023-03-18T06:31:26.122Z,100.00
2023-03-18T06:33:53.479Z,100.00
2023-03-18T06:36:21.771Z,100.00
2023-03-18T06:38:48.556Z,100.00
2023-03-18T06:41:16.390Z,100.00
2023-03-18T06:43:43.440Z,100.00
2023-03-18T06:46:10.749Z,100.00
2023-03-18T06:48:40.507Z,100.00
2023-03-18T06:51:07.914Z,100.00
2023-03-18T06:53:36.521Z,100.00
2023-03-18T06:56:06.148Z,100.00
2023-03-18T06:58:32.884Z,100.00
2023-03-18T07:01:00.488Z,100.00
2023-03-18T07:03:28.293Z,99.56
2023-03-18T07:05:56.131Z,100.00
2023-03-18T07:08:23.584Z,100.00
2023-03-18T07:10:54.695Z,100.00
2023-03-18T07:13:22.677Z,100.00
2023-03-18T07:15:49.687Z,100.00
2023-03-18T07:18:16.534Z,100.00
2023-03-18T07:20:43.533Z,100.00
2023-03-18T07:23:10.717Z,100.00
2023-03-18T07:25:37.546Z,100.00
2023-03-18T07:28:05.859Z,100.00
2023-03-18T07:30:34.081Z,100.00
2023-03-18T07:33:01.317Z,100.00
2023-03-18T07:35:28.752Z,100.00
2023-03-18T07:37:55.689Z,100.00
2023-03-18T07:40:22.883Z,100.00
2023-03-18T07:42:51.726Z,100.00
2023-03-18T07:45:18.599Z,100.00
2023-03-18T07:47:47.273Z,100.00
2023-03-18T07:50:14.468Z,100.00
2023-03-18T07:52:42.022Z,100.00
2023-03-18T07:55:09.457Z,100.00
2023-03-18T07:57:36.803Z,100.00
2023-03-18T08:00:06.092Z,100.00
2023-03-18T08:02:34.085Z,100.00
2023-03-18T08:05:00.956Z,100.00
2023-03-18T08:07:27.779Z,100.00
2023-03-18T08:09:54.615Z,100.00
2023-03-18T08:12:21.956Z,99.43
2023-03-18T08:14:49.839Z,97.07
2023-03-18T08:17:16.723Z,94.78
2023-03-18T08:19:43.519Z,93.64
2023-03-18T08:22:13.235Z,91.77
2023-03-18T08:24:39.969Z,90.14
2023-03-18T08:27:07.145Z,89.58
2023-03-18T08:29:33.906Z,90.73
2023-03-18T08:32:01.402Z,91.57
2023-03-18T08:34:28.369Z,91.95
2023-03-18T08:36:55.225Z,90.68
2023-03-18T08:39:22.800Z,90.40
2023-03-18T08:41:49.512Z,89.82
2023-03-18T08:44:16.591Z,84.51
2023-03-18T08:46:43.346Z,83.48
2023-03-18T08:49:10.899Z,85.26
2023-03-18T08:51:38.634Z,82.43
2023-03-18T08:54:05.948Z,71.47
2023-03-18T08:56:32.708Z,74.41
2023-03-18T08:58:59.419Z,61.33
2023-03-18T09:01:26.366Z,64.56
2023-03-18T09:03:53.753Z,60.91
2023-03-18T09:06:21.178Z,54.12
2023-03-18T09:08:47.963Z,54.52
2023-03-18T09:11:14.809Z,55.80
2023-03-18T09:13:41.584Z,53.81
2023-03-18T09:16:08.570Z,52.62
2023-03-18T09:18:35.540Z,52.49
2023-03-18T09:21:03.418Z,52.81
2023-03-18T09:23:30.231Z,51.93
2023-03-18T09:25:57.355Z,49.80
2023-03-18T09:28:24.208Z,47.99
2023-03-18T09:30:51.521Z,46.75
2023-03-18T09:33:19.687Z,46.90
2023-03-18T09:35:46.795Z,49.28
2023-03-18T09:38:19.980Z,47.95
2023-03-18T09:41:02.817Z,44.94
2023-03-18T09:43:45.082Z,45.10
2023-03-18T09:46:25.604Z,43.43
2023-03-18T09:49:16.774Z,43.69
2023-03-18T09:51:58.750Z,40.50
2023-03-18T09:54:41.472Z,42.84
2023-03-18T09:57:30.697Z,41.20
2023-03-18T10:00:28.846Z,40.43
2023-03-18T10:03:11.264Z,39.98
2023-03-18T10:05:56.346Z,40.65
2023-03-18T10:08:51.381Z,39.71
2023-03-18T10:11:31.258Z,42.01
2023-03-18T10:14:37.130Z,41.47
2023-03-18T10:17:26.152Z,38.13
2023-03-18T10:20:09.350Z,38.53
2023-03-18T10:23:00.410Z,38.51
2023-03-18T10:25:43.981Z,40.04
2023-03-18T10:28:47.437Z,39.20
2023-03-18T10:31:23.785Z,36.50
2023-03-18T10:34:02.861Z,40.10
2023-03-18T10:36:48.286Z,37.68
2023-03-18T10:39:23.504Z,37.83
2023-03-18T10:41:52.517Z,40.12
2023-03-18T10:44:38.855Z,38.73
2023-03-18T10:47:08.394Z,39.15
2023-03-18T10:49:43.801Z,38.76
2023-03-18T10:52:38.148Z,39.41
2023-03-18T10:55:14.357Z,38.66
2023-03-18T10:57:41.558Z,38.31
2023-03-18T11:00:30.350Z,39.16
2023-03-18T11:02:57.807Z,37.76
2023-03-18T11:05:33.828Z,37.14
2023-03-18T11:08:09.097Z,36.79
2023-03-18T11:10:40.578Z,37.52
2023-03-18T11:13:07.462Z,37.16
2023-03-18T11:15:40.460Z,36.72
2023-03-18T11:18:14.538Z,38.31
2023-03-18T11:20:44.953Z,39.11
2023-03-18T11:23:56.534Z,38.44
2023-03-18T11:26:29.636Z,39.18
2023-03-18T11:29:05.819Z,38.55
2023-03-18T11:31:32.891Z,37.34
2023-03-18T11:34:00.752Z,39.06
2023-03-18T11:36:28.596Z,39.15
2023-03-18T11:39:04.868Z,37.83
2023-03-18T11:41:31.662Z,37.12
2023-03-18T11:44:02.314Z,36.84
2023-03-18T11:46:39.402Z,36.98
2023-03-18T11:49:09.896Z,35.28
2023-03-18T11:52:07.162Z,35.08
2023-03-18T11:54:49.204Z,35.64
2023-03-18T11:58:05.481Z,35.95
2023-03-18T12:00:44.002Z,34.27
2023-03-18T12:03:28.142Z,34.14
2023-03-18T12:06:30.919Z,34.51
2023-03-18T12:09:11.773Z,34.74
2023-03-18T12:11:41.335Z,33.55
2023-03-18T12:14:10.870Z,34.42
2023-03-18T12:17:13.445Z,33.72
2023-03-18T12:20:26.440Z,33.62
2023-03-18T12:23:30.132Z,34.90
2023-03-18T12:26:08.640Z,33.61
2023-03-18T12:29:09.715Z,33.56
2023-03-18T12:31:57.491Z,32.87
2023-03-18T12:35:03.103Z,33.54
2023-03-18T12:38:16.296Z,33.95
2023-03-18T12:40:51.557Z,31.78
2023-03-18T12:43:58.655Z,31.31
2023-03-18T12:46:36.180Z,31.70
2023-03-18T12:49:25.912Z,31.71
2023-03-18T12:52:06.456Z,33.19
2023-03-18T12:54:47.493Z,32.98
2023-03-18T12:57:38.495Z,32.63
2023-03-18T13:00:32.641Z,31.88
2023-03-18T13:03:27.502Z,32.74
2023-03-18T13:06:19.109Z,32.44
2023-03-18T13:09:19.144Z,32.69
2023-03-18T13:12:12.581Z,30.84
2023-03-18T13:14:45.334Z,33.04
2023-03-18T13:17:23.610Z,33.05
2023-03-18T13:19:50.633Z,32.98
2023-03-18T13:22:36.027Z,32.00
2023-03-18T13:25:34.787Z,31.05
2023-03-18T13:28:28.498Z,31.15
2023-03-18T13:31:12.555Z,32.67
2023-03-18T13:34:16.080Z,30.97
2023-03-18T13:40:58.919Z,29.43
2023-03-18T13:43:26.237Z,29.40
2023-03-18T13:45:54.218Z,29.57
2023-03-18T13:48:35.539Z,29.01
2023-03-18T13:51:34.930Z,29.34
2023-03-18T13:54:05.846Z,28.90
2023-03-18T13:56:44.352Z,28.57
2023-03-18T13:59:35.633Z,28.78
2023-03-18T14:02:33.882Z,29.21
2023-03-18T14:05:00.973Z,28.80
2023-03-18T14:07:28.724Z,29.35
2023-03-18T14:10:17.168Z,29.93
2023-03-18T14:12:47.889Z,29.51
2023-03-18T14:15:15.114Z,29.33
2023-03-18T14:17:47.874Z,29.72
2023-03-18T14:20:19.849Z,30.37
2023-03-18T14:22:53.223Z,30.24
2023-03-18T14:25:36.481Z,29.26
2023-03-18T14:28:09.447Z,29.38
2023-03-18T14:30:37.173Z,29.95
2023-03-18T14:33:05.254Z,29.66
2023-03-18T14:35:54.729Z,30.41
2023-03-18T14:38:26.218Z,30.32
2023-03-18T14:40:56.387Z,30.56
2023-03-18T14:43:35.570Z,30.86
2023-03-18T14:46:17.754Z,30.00
2023-03-18T14:48:45.228Z,30.28
2023-03-18T14:51:19.038Z,30.32
2023-03-18T14:54:07.093Z,31.49
2023-03-18T14:56:41.259Z,31.04
2023-03-18T14:59:15.800Z,31.15
2023-03-18T15:01:48.198Z,31.62
2023-03-18T15:04:24.125Z,31.86
2023-03-18T15:06:57.040Z,31.74
2023-03-18T15:09:28.592Z,31.79
2023-03-18T15:11:55.858Z,31.86
2023-03-18T15:14:30.679Z,31.28
2023-03-18T15:17:07.372Z,31.63
2023-03-18T15:19:34.107Z,32.06
2023-03-18T15:22:06.436Z,31.01
2023-03-18T15:24:33.560Z,31.72
2023-03-18T15:27:15.264Z,32.82
2023-03-18T15:29:53.167Z,31.35
2023-03-18T15:32:31.822Z,30.49
2023-03-18T15:34:59.005Z,31.33
2023-03-18T15:37:40.695Z,32.61
2023-03-18T15:40:32.044Z,32.88
2023-03-18T15:43:09.402Z,33.73
2023-03-18T15:45:41.830Z,34.35
2023-03-18T15:48:24.013Z,34.71
2023-03-18T15:51:30.987Z,35.02
2023-03-18T15:54:28.111Z,35.30
2023-03-18T15:56:59.403Z,35.50
2023-03-18T15:59:33.738Z,35.34
2023-03-18T16:02:02.230Z,35.86
2023-03-18T16:04:34.246Z,35.86
2023-03-18T16:07:01.081Z,35.90
2023-03-18T16:09:27.838Z,36.23
2023-03-18T16:12:02.530Z,36.69
2023-03-18T16:14:40.083Z,36.88
2023-03-18T16:17:07.168Z,37.34
2023-03-18T16:19:34.002Z,37.85
2023-03-18T16:22:00.809Z,38.37
2023-03-18T16:24:27.676Z,39.08
2023-03-18T16:26:56.881Z,39.67
2023-03-18T16:29:31.667Z,40.93
2023-03-18T16:31:59.993Z,41.18
2023-03-18T16:34:27.961Z,41.50
2023-03-18T16:36:55.419Z,41.83
2023-03-18T16:39:25.083Z,42.17
2023-03-18T16:41:52.482Z,42.58
2023-03-18T16:44:23.584Z,42.92
2023-03-18T16:46:54.624Z,43.16
2023-03-18T16:49:27.152Z,43.65
2023-03-18T16:51:53.964Z,44.63
2023-03-18T16:54:29.382Z,45.05
2023-03-18T16:56:59.532Z,45.37
2023-03-18T16:59:32.132Z,46.43
2023-03-18T17:01:58.869Z,46.87
2023-03-18T17:04:29.391Z,47.03
2023-03-18T17:06:59.831Z,47.01
2023-03-18T17:09:27.801Z,47.76
2023-03-18T17:12:00.018Z,48.57
2023-03-18T17:14:44.050Z,49.91
2023-03-18T17:17:25.381Z,51.53
2023-03-18T17:19:52.207Z,51.55
2023-03-18T17:22:29.230Z,52.28
2023-03-18T17:24:56.566Z,53.50
2023-03-18T17:27:49.833Z,55.05
2023-03-18T17:30:22.646Z,56.18
2023-03-18T17:32:50.787Z,56.54
2023-03-18T17:35:21.910Z,56.66
2023-03-18T17:37:49.529Z,56.93
2023-03-18T17:40:19.429Z,57.49
2023-03-18T17:42:48.067Z,58.04
2023-03-18T17:45:32.464Z,58.80
2023-03-18T17:48:18.087Z,60.43
2023-03-18T17:50:45.111Z,60.94
2023-03-18T17:53:26.771Z,62.75
2023-03-18T17:55:54.829Z,62.34
2023-03-18T17:58:24.796Z,62.64
2023-03-18T18:00:54.096Z,62.61
2023-03-18T18:03:27.952Z,62.60
2023-03-18T18:05:56.929Z,62.90
2023-03-18T18:08:25.755Z,63.77
2023-03-18T18:10:54.721Z,65.06
2023-03-18T18:13:23.432Z,66.33
2023-03-18T18:15:51.189Z,65.54
2023-03-18T18:18:26.756Z,65.03
2023-03-18T18:20:57.800Z,64.94
2023-03-18T18:23:38.957Z,64.66
2023-03-18T18:26:09.469Z,63.30
2023-03-18T18:28:42.796Z,63.22
2023-03-18T18:31:12.262Z,63.18
2023-03-18T18:33:42.500Z,62.69
2023-03-18T18:36:10.178Z,64.85
2023-03-18T18:38:36.997Z,65.38
2023-03-18T18:41:04.734Z,66.20
2023-03-18T18:43:31.878Z,67.62
2023-03-18T18:45:59.261Z,68.81
2023-03-18T18:48:34.728Z,69.65
2023-03-18T18:51:04.259Z,70.20
2023-03-18T18:53:36.719Z,71.67
2023-03-18T18:56:44.002Z,72.11
2023-03-18T18:59:24.926Z,73.71
2023-03-18T19:01:52.092Z,74.61
2023-03-18T19:04:19.100Z,75.62
2023-03-18T19:06:46.473Z,75.13
2023-03-18T19:09:23.784Z,74.79
2023-03-18T19:11:51.801Z,74.16
2023-03-18T19:14:29.074Z,73.94
2023-03-18T19:16:58.830Z,75.32
2023-03-18T19:19:33.471Z,76.43
2023-03-18T19:22:00.563Z,77.08
2023-03-18T19:24:37.120Z,76.40
2023-03-18T19:27:13.858Z,76.10
2023-03-18T19:29:41.586Z,76.82
2023-03-18T19:32:28.577Z,75.30
2023-03-18T19:34:56.074Z,75.60
2023-03-18T19:37:29.457Z,76.68
2023-03-18T19:39:57.247Z,76.70
2023-03-18T19:42:24.080Z,76.88
2023-03-18T19:44:51.241Z,76.18
2023-03-18T19:47:23.033Z,76.03
2023-03-18T19:49:50.702Z,76.64
2023-03-18T19:52:24.516Z,76.67
2023-03-18T19:54:52.839Z,76.56
2023-03-18T19:57:27.986Z,76.79
2023-03-18T19:59:58.774Z,77.16
2023-03-18T20:02:31.573Z,76.56
2023-03-18T20:05:02.331Z,77.10
2023-03-18T20:07:32.717Z,76.58
2023-03-18T20:09:59.814Z,76.67
2023-03-18T20:12:36.654Z,75.39
2023-03-18T20:15:05.805Z,77.78
2023-03-18T20:17:39.500Z,78.51
2023-03-18T20:20:30.581Z,77.71
2023-03-18T20:23:02.798Z,78.40
2023-03-18T20:25:41.278Z,80.26
2023-03-18T20:28:15.800Z,81.04
2023-03-18T20:30:43.686Z,81.46
2023-03-18T20:33:10.628Z,81.72
2023-03-18T20:35:42.988Z,81.56
2023-03-18T20:38:33.832Z,81.06
2023-03-18T20:41:01.112Z,81.76
2023-03-18T20:43:29.786Z,83.28
2023-03-18T20:45:59.580Z,84.16
2023-03-18T20:48:27.920Z,84.96
2023-03-18T20:50:55.431Z,85.52
2023-03-18T20:53:31.862Z,85.21
2023-03-18T20:55:58.679Z,85.49
2023-03-18T20:58:28.233Z,84.98
2023-03-18T21:00:55.451Z,86.12
2023-03-18T21:03:34.865Z,85.84
2023-03-18T21:06:06.656Z,85.84
2023-03-18T21:08:33.882Z,86.60
2023-03-18T21:11:02.153Z,86.43
2023-03-18T21:13:39.453Z,87.39
2023-03-18T21:16:15.300Z,88.47
2023-03-18T21:18:45.429Z,87.96
2023-03-18T21:21:24.085Z,88.46
2023-03-18T21:23:52.634Z,88.13
2023-03-18T21:26:19.425Z,87.08
2023-03-18T21:28:46.201Z,87.46
2023-03-18T21:31:24.218Z,87.61
2023-03-18T21:33:52.288Z,87.60
2023-03-18T21:36:20.584Z,86.51
2023-03-18T21:38:47.601Z,87.30
2023-03-18T21:41:28.139Z,86.39
2023-03-18T21:43:55.067Z,85.81
2023-03-18T21:46:24.934Z,85.07
2023-03-18T21:48:52.250Z,85.59
2023-03-18T21:51:40.276Z,85.82
2023-03-18T21:54:18.400Z,86.89
2023-03-18T21:56:45.164Z,86.91
2023-03-18T21:59:11.871Z,87.73
2023-03-18T22:01:38.655Z,87.75
2023-03-18T22:04:05.708Z,88.45
2023-03-18T22:06:33.506Z,89.46
2023-03-18T22:09:00.331Z,88.68
2023-03-18T22:11:27.776Z,88.26
2023-03-18T22:13:54.608Z,88.16
2023-03-18T22:16:21.932Z,87.75
2023-03-18T22:18:48.776Z,87.58
2023-03-18T22:21:27.687Z,87.33
2023-03-18T22:23:55.750Z,86.90
2023-03-18T22:26:22.742Z,86.63
2023-03-18T22:28:50.727Z,87.04
2023-03-18T22:31:26.720Z,87.73
2023-03-18T22:33:54.288Z,87.20
2023-03-18T22:36:21.922Z,87.35
2023-03-18T22:38:49.422Z,87.47
2023-03-18T22:41:22.686Z,87.76
2023-03-18T22:43:50.947Z,87.42
2023-03-18T22:46:18.070Z,86.99
2023-03-18T22:48:45.046Z,85.93
2023-03-18T22:51:29.954Z,85.54
2023-03-18T22:53:56.976Z,85.73
2023-03-18T22:56:24.062Z,85.97
2023-03-18T22:58:51.369Z,85.59
2023-03-18T23:01:21.374Z,84.68
2023-03-18T23:03:49.048Z,85.18
2023-03-18T23:06:20.909Z,85.38
2023-03-18T23:08:48.108Z,86.43
2023-03-18T23:11:16.638Z,86.78
2023-03-18T23:13:47.606Z,87.47
2023-03-18T23:16:20.403Z,88.03
2023-03-18T23:18:47.686Z,87.84
2023-03-18T23:21:21.738Z,88.20
2023-03-18T23:23:49.024Z,87.74
2023-03-18T23:26:16.246Z,88.24
2023-03-18T23:28:45.388Z,88.90
2023-03-18T23:31:14.956Z,90.14
2023-03-18T23:33:42.572Z,90.13
2023-03-18T23:36:09.734Z,90.30
2023-03-18T23:38:37.996Z,90.44
2023-03-18T23:41:05.629Z,89.50
2023-03-18T23:43:32.385Z,88.88
2023-03-18T23:45:59.309Z,88.25
2023-03-18T23:48:26.288Z,88.32
2023-03-18T23:50:54.093Z,89.42
2023-03-18T23:53:21.054Z,89.04
2023-03-18T23:55:49.540Z,88.11
2023-03-18T23:58:16.715Z,88.26
